sensor_id;sensor_type;location;lat;lon;timestamp;temperature;humidity
8248;DHT22;4164;49.844;8.830;2023-07-13T00:01:43;19.30;19.30
8248;DHT22;4164;49.844;8.830;2023-07-13T00:04:08;19.30;20.40
8248;DHT22;4164;49.844;8.830;2023-07-13T00:06:34;19.30;20.80
8248;DHT22;4164;49.844;8.830;2023-07-13T00:09:00;19.30;21.20
8248;DHT22;4164;49.844;8.830;2023-07-13T00:11:26;19.30;20.90
8248;DHT22;4164;49.844;8.830;2023-07-13T00:13:53;19.30;21.80
8248;DHT22;4164;49.844;8.830;2023-07-13T00:16:19;19.30;21.40
8248;DHT22;4164;49.844;8.830;2023-07-13T00:18:45;19.30;21.80
8248;DHT22;4164;49.844;8.830;2023-07-13T00:21:11;19.30;22.40
8248;DHT22;4164;49.844;8.830;2023-07-13T00:23:39;19.30;22.10
8248;DHT22;4164;49.844;8.830;2023-07-13T00:26:06;19.30;21.60
8248;DHT22;4164;49.844;8.830;2023-07-13T00:28:34;19.30;22.10
8248;DHT22;4164;49.844;8.830;2023-07-13T00:31:00;19.30;22.90
8248;DHT22;4164;49.844;8.830;2023-07-13T00:33:26;19.30;23.90
8248;DHT22;4164;49.844;8.830;2023-07-13T00:35:54;19.20;23.50
8248;DHT22;4164;49.844;8.830;2023-07-13T00:38:20;19.10;24.10
8248;DHT22;4164;49.844;8.830;2023-07-13T00:40:45;19.10;24.90
8248;DHT22;4164;49.844;8.830;2023-07-13T00:43:15;19.00;26.00
8248;DHT22;4164;49.844;8.830;2023-07-13T00:48:20;19.00;27.10
8248;DHT22;4164;49.844;8.830;2023-07-13T00:50:48;18.90;27.40
8248;DHT22;4164;49.844;8.830;2023-07-13T00:53:15;18.80;28.50
8248;DHT22;4164;49.844;8.830;2023-07-13T00:55:41;18.80;29.10
8248;DHT22;4164;49.844;8.830;2023-07-13T00:58:07;18.80;30.10
8248;DHT22;4164;49.844;8.830;2023-07-13T01:00:35;18.70;31.20
8248;DHT22;4164;49.844;8.830;2023-07-13T01:03:01;18.70;32.10
8248;DHT22;4164;49.844;8.830;2023-07-13T01:05:31;18.70;35.00
8248;DHT22;4164;49.844;8.830;2023-07-13T01:07:57;18.60;35.70
8248;DHT22;4164;49.844;8.830;2023-07-13T01:10:25;18.60;38.00
8248;DHT22;4164;49.844;8.830;2023-07-13T01:12:51;18.60;37.70
8248;DHT22;4164;49.844;8.830;2023-07-13T01:15:53;18.50;39.60
8248;DHT22;4164;49.844;8.830;2023-07-13T01:20:52;18.40;43.60
8248;DHT22;4164;49.844;8.830;2023-07-13T01:23:18;18.40;44.60
8248;DHT22;4164;49.844;8.830;2023-07-13T01:25:44;18.40;45.30
8248;DHT22;4164;49.844;8.830;2023-07-13T01:28:10;18.40;45.60
8248;DHT22;4164;49.844;8.830;2023-07-13T01:30:36;18.40;46.20
8248;DHT22;4164;49.844;8.830;2023-07-13T01:33:03;18.30;58.10
8248;DHT22;4164;49.844;8.830;2023-07-13T01:35:29;18.40;47.80
8248;DHT22;4164;49.844;8.830;2023-07-13T01:37:55;18.30;51.00
8248;DHT22;4164;49.844;8.830;2023-07-13T01:40:22;18.20;53.30
8248;DHT22;4164;49.844;8.830;2023-07-13T01:42:48;18.20;55.10
8248;DHT22;4164;49.844;8.830;2023-07-13T01:45:13;18.10;58.10
8248;DHT22;4164;49.844;8.830;2023-07-13T01:47:40;18.10;61.20
8248;DHT22;4164;49.844;8.830;2023-07-13T01:50:05;18.00;64.80
8248;DHT22;4164;49.844;8.830;2023-07-13T01:52:31;18.00;69.40
8248;DHT22;4164;49.844;8.830;2023-07-13T01:54:56;18.00;73.50
8248;DHT22;4164;49.844;8.830;2023-07-13T01:57:22;17.90;75.50
8248;DHT22;4164;49.844;8.830;2023-07-13T01:59:48;17.90;78.60
8248;DHT22;4164;49.844;8.830;2023-07-13T02:02:13;17.80;83.20
8248;DHT22;4164;49.844;8.830;2023-07-13T02:04:40;17.80;89.60
8248;DHT22;4164;49.844;8.830;2023-07-13T02:07:07;17.80;92.40
8248;DHT22;4164;49.844;8.830;2023-07-13T02:09:33;17.70;96.60
8248;DHT22;4164;49.844;8.830;2023-07-13T02:11:58;17.60;99.90
8248;DHT22;4164;49.844;8.830;2023-07-13T02:14:24;17.60;99.90
8248;DHT22;4164;49.844;8.830;2023-07-13T02:16:49;17.50;99.90
8248;DHT22;4164;49.844;8.830;2023-07-13T02:19:15;17.50;99.90
8248;DHT22;4164;49.844;8.830;2023-07-13T02:21:40;17.50;99.90
8248;DHT22;4164;49.844;8.830;2023-07-13T02:24:06;17.40;99.90
8248;DHT22;4164;49.844;8.830;2023-07-13T02:26:32;17.30;99.90
8248;DHT22;4164;49.844;8.830;2023-07-13T02:28:57;17.20;99.90
8248;DHT22;4164;49.844;8.830;2023-07-13T02:31:23;17.20;99.90
8248;DHT22;4164;49.844;8.830;2023-07-13T02:33:48;17.20;99.90
8248;DHT22;4164;49.844;8.830;2023-07-13T02:36:14;17.10;99.90
8248;DHT22;4164;49.844;8.830;2023-07-13T02:38:41;17.10;99.90
8248;DHT22;4164;49.844;8.830;2023-07-13T02:41:08;17.10;99.90
8248;DHT22;4164;49.844;8.830;2023-07-13T02:43:35;17.10;99.90
8248;DHT22;4164;49.844;8.830;2023-07-13T02:46:01;17.10;99.90
8248;DHT22;4164;49.844;8.830;2023-07-13T02:48:33;17.00;99.90
8248;DHT22;4164;49.844;8.830;2023-07-13T02:50:59;17.10;99.90
8248;DHT22;4164;49.844;8.830;2023-07-13T02:53:25;17.00;99.90
8248;DHT22;4164;49.844;8.830;2023-07-13T02:55:50;16.90;99.90
8248;DHT22;4164;49.844;8.830;2023-07-13T02:58:16;16.90;99.90
8248;DHT22;4164;49.844;8.830;2023-07-13T03:00:46;17.00;99.90
8248;DHT22;4164;49.844;8.830;2023-07-13T03:03:15;16.80;99.90
8248;DHT22;4164;49.844;8.830;2023-07-13T03:05:42;17.00;99.90
8248;DHT22;4164;49.844;8.830;2023-07-13T03:08:10;17.00;99.90
8248;DHT22;4164;49.844;8.830;2023-07-13T03:10:36;17.00;99.90
8248;DHT22;4164;49.844;8.830;2023-07-13T03:13:02;17.10;99.90
8248;DHT22;4164;49.844;8.830;2023-07-13T03:15:28;17.00;99.90
8248;DHT22;4164;49.844;8.830;2023-07-13T03:17:53;17.00;99.90
8248;DHT22;4164;49.844;8.830;2023-07-13T03:20:19;16.90;99.90
8248;DHT22;4164;49.844;8.830;2023-07-13T03:22:45;16.90;99.90
8248;DHT22;4164;49.844;8.830;2023-07-13T03:25:10;16.90;99.90
8248;DHT22;4164;49.844;8.830;2023-07-13T03:27:37;16.90;99.90
8248;DHT22;4164;49.844;8.830;2023-07-13T03:30:06;17.00;99.90
8248;DHT22;4164;49.844;8.830;2023-07-13T03:32:33;17.00;99.90
8248;DHT22;4164;49.844;8.830;2023-07-13T03:34:58;17.00;99.90
8248;DHT22;4164;49.844;8.830;2023-07-13T03:37:24;16.80;1.00
8248;DHT22;4164;49.844;8.830;2023-07-13T03:39:50;16.80;1.00
8248;DHT22;4164;49.844;8.830;2023-07-13T03:42:15;16.70;1.00
8248;DHT22;4164;49.844;8.830;2023-07-13T03:44:44;16.60;1.00
8248;DHT22;4164;49.844;8.830;2023-07-13T03:47:16;16.50;1.00
8248;DHT22;4164;49.844;8.830;2023-07-13T03:49:41;16.50;92.20
8248;DHT22;4164;49.844;8.830;2023-07-13T03:52:07;16.20;99.90
8248;DHT22;4164;49.844;8.830;2023-07-13T03:54:32;16.20;99.90
8248;DHT22;4164;49.844;8.830;2023-07-13T03:56:58;16.10;99.90
8248;DHT22;4164;49.844;8.830;2023-07-13T03:59:23;16.10;99.90
8248;DHT22;4164;49.844;8.830;2023-07-13T04:01:49;16.20;99.90
8248;DHT22;4164;49.844;8.830;2023-07-13T04:04:15;16.10;99.90
8248;DHT22;4164;49.844;8.830;2023-07-13T04:06:41;16.10;99.90
8248;DHT22;4164;49.844;8.830;2023-07-13T04:09:06;16.20;99.90
8248;DHT22;4164;49.844;8.830;2023-07-13T04:11:32;16.30;99.90
8248;DHT22;4164;49.844;8.830;2023-07-13T04:13:58;16.30;99.90
8248;DHT22;4164;49.844;8.830;2023-07-13T04:16:24;16.30;1.00
8248;DHT22;4164;49.844;8.830;2023-07-13T04:18:51;16.30;99.90
8248;DHT22;4164;49.844;8.830;2023-07-13T04:21:20;16.10;99.90
8248;DHT22;4164;49.844;8.830;2023-07-13T04:23:45;16.00;99.90
8248;DHT22;4164;49.844;8.830;2023-07-13T04:26:11;16.10;99.90
8248;DHT22;4164;49.844;8.830;2023-07-13T04:28:36;16.20;1.00
8248;DHT22;4164;49.844;8.830;2023-07-13T04:31:02;16.40;1.00
8248;DHT22;4164;49.844;8.830;2023-07-13T04:33:28;16.50;1.00
8248;DHT22;4164;49.844;8.830;2023-07-13T04:35:55;16.60;1.00
8248;DHT22;4164;49.844;8.830;2023-07-13T04:38:27;16.70;1.00
8248;DHT22;4164;49.844;8.830;2023-07-13T04:40:56;16.80;1.00
8248;DHT22;4164;49.844;8.830;2023-07-13T04:43:22;16.90;99.90
8248;DHT22;4164;49.844;8.830;2023-07-13T04:45:48;16.80;1.00
8248;DHT22;4164;49.844;8.830;2023-07-13T04:48:13;16.70;99.90
8248;DHT22;4164;49.844;8.830;2023-07-13T04:50:39;16.80;99.90
8248;DHT22;4164;49.844;8.830;2023-07-13T04:53:05;17.10;65.80
8248;DHT22;4164;49.844;8.830;2023-07-13T04:55:31;17.20;33.30
8248;DHT22;4164;49.844;8.830;2023-07-13T04:57:57;16.80;99.90
8248;DHT22;4164;49.844;8.830;2023-07-13T05:00:24;16.80;99.90
8248;DHT22;4164;49.844;8.830;2023-07-13T05:02:50;17.10;99.90
8248;DHT22;4164;49.844;8.830;2023-07-13T05:05:16;17.10;1.00
8248;DHT22;4164;49.844;8.830;2023-07-13T05:07:42;17.00;1.00
8248;DHT22;4164;49.844;8.830;2023-07-13T05:10:08;16.90;1.00
8248;DHT22;4164;49.844;8.830;2023-07-13T05:12:33;17.10;1.00
8248;DHT22;4164;49.844;8.830;2023-07-13T05:14:59;17.00;1.00
8248;DHT22;4164;49.844;8.830;2023-07-13T05:17:24;17.20;1.00
8248;DHT22;4164;49.844;8.830;2023-07-13T05:19:50;17.30;1.00
8248;DHT22;4164;49.844;8.830;2023-07-13T05:22:15;17.40;1.00
8248;DHT22;4164;49.844;8.830;2023-07-13T05:24:41;17.50;1.00
8248;DHT22;4164;49.844;8.830;2023-07-13T05:27:06;17.60;1.00
8248;DHT22;4164;49.844;8.830;2023-07-13T05:29:32;17.70;1.00
8248;DHT22;4164;49.844;8.830;2023-07-13T05:31:58;17.80;1.00
8248;DHT22;4164;49.844;8.830;2023-07-13T05:34:23;17.90;1.00
8248;DHT22;4164;49.844;8.830;2023-07-13T05:36:49;18.00;1.00
8248;DHT22;4164;49.844;8.830;2023-07-13T05:39:16;18.00;1.00
8248;DHT22;4164;49.844;8.830;2023-07-13T05:41:41;18.00;1.00
8248;DHT22;4164;49.844;8.830;2023-07-13T05:44:07;18.10;1.00
8248;DHT22;4164;49.844;8.830;2023-07-13T05:46:33;18.30;99.90
8248;DHT22;4164;49.844;8.830;2023-07-13T05:48:58;18.50;99.90
8248;DHT22;4164;49.844;8.830;2023-07-13T05:51:24;18.50;99.90
8248;DHT22;4164;49.844;8.830;2023-07-13T05:53:50;18.60;99.90
8248;DHT22;4164;49.844;8.830;2023-07-13T05:56:15;18.80;99.90
8248;DHT22;4164;49.844;8.830;2023-07-13T05:58:41;19.10;99.90
8248;DHT22;4164;49.844;8.830;2023-07-13T06:01:10;19.20;99.90
8248;DHT22;4164;49.844;8.830;2023-07-13T06:03:36;19.30;99.90
8248;DHT22;4164;49.844;8.830;2023-07-13T06:06:05;19.20;99.90
8248;DHT22;4164;49.844;8.830;2023-07-13T06:08:31;19.30;99.90
8248;DHT22;4164;49.844;8.830;2023-07-13T06:11:08;19.10;99.90
8248;DHT22;4164;49.844;8.830;2023-07-13T06:13:35;19.30;99.90
8248;DHT22;4164;49.844;8.830;2023-07-13T06:16:01;19.60;99.90
8248;DHT22;4164;49.844;8.830;2023-07-13T06:18:30;19.40;99.90
8248;DHT22;4164;49.844;8.830;2023-07-13T06:20:55;19.40;99.90
8248;DHT22;4164;49.844;8.830;2023-07-13T06:23:22;19.40;99.90
8248;DHT22;4164;49.844;8.830;2023-07-13T06:25:47;19.50;99.90
8248;DHT22;4164;49.844;8.830;2023-07-13T06:28:13;19.80;99.90
8248;DHT22;4164;49.844;8.830;2023-07-13T06:30:39;19.90;99.90
8248;DHT22;4164;49.844;8.830;2023-07-13T06:33:05;19.50;99.90
8248;DHT22;4164;49.844;8.830;2023-07-13T06:35:30;19.50;99.90
8248;DHT22;4164;49.844;8.830;2023-07-13T06:37:56;19.50;99.90
8248;DHT22;4164;49.844;8.830;2023-07-13T06:40:21;19.80;99.90
8248;DHT22;4164;49.844;8.830;2023-07-13T06:42:47;20.00;99.90
8248;DHT22;4164;49.844;8.830;2023-07-13T06:45:12;19.90;99.90
8248;DHT22;4164;49.844;8.830;2023-07-13T06:47:38;19.80;99.90
8248;DHT22;4164;49.844;8.830;2023-07-13T06:50:04;19.80;99.90
8248;DHT22;4164;49.844;8.830;2023-07-13T06:52:29;19.80;99.90
8248;DHT22;4164;49.844;8.830;2023-07-13T06:54:55;19.70;99.90
8248;DHT22;4164;49.844;8.830;2023-07-13T06:57:20;20.00;99.90
8248;DHT22;4164;49.844;8.830;2023-07-13T06:59:46;19.90;99.90
8248;DHT22;4164;49.844;8.830;2023-07-13T07:02:12;20.20;99.90
8248;DHT22;4164;49.844;8.830;2023-07-13T07:04:37;20.10;99.90
8248;DHT22;4164;49.844;8.830;2023-07-13T07:07:03;20.10;99.90
8248;DHT22;4164;49.844;8.830;2023-07-13T07:09:28;20.30;99.90
8248;DHT22;4164;49.844;8.830;2023-07-13T07:11:55;20.20;99.90
8248;DHT22;4164;49.844;8.830;2023-07-13T07:14:21;20.40;99.90
8248;DHT22;4164;49.844;8.830;2023-07-13T07:16:46;20.70;99.90
8248;DHT22;4164;49.844;8.830;2023-07-13T07:19:12;20.70;99.90
8248;DHT22;4164;49.844;8.830;2023-07-13T07:21:37;20.60;99.90
8248;DHT22;4164;49.844;8.830;2023-07-13T07:24:04;20.60;99.90
8248;DHT22;4164;49.844;8.830;2023-07-13T07:26:30;20.90;99.90
8248;DHT22;4164;49.844;8.830;2023-07-13T07:28:56;21.00;99.90
8248;DHT22;4164;49.844;8.830;2023-07-13T07:31:21;21.10;99.90
8248;DHT22;4164;49.844;8.830;2023-07-13T07:33:47;21.00;99.90
8248;DHT22;4164;49.844;8.830;2023-07-13T07:36:18;21.00;99.90
8248;DHT22;4164;49.844;8.830;2023-07-13T07:38:43;21.10;99.90
8248;DHT22;4164;49.844;8.830;2023-07-13T07:41:09;21.00;99.90
8248;DHT22;4164;49.844;8.830;2023-07-13T07:43:36;20.90;99.90
8248;DHT22;4164;49.844;8.830;2023-07-13T07:46:02;21.00;99.90
8248;DHT22;4164;49.844;8.830;2023-07-13T07:48:27;21.10;99.90
8248;DHT22;4164;49.844;8.830;2023-07-13T07:50:53;21.00;99.90
8248;DHT22;4164;49.844;8.830;2023-07-13T07:53:19;21.40;99.90
8248;DHT22;4164;49.844;8.830;2023-07-13T07:55:44;21.50;99.90
8248;DHT22;4164;49.844;8.830;2023-07-13T07:58:10;21.60;99.90
8248;DHT22;4164;49.844;8.830;2023-07-13T08:00:36;21.50;99.90
8248;DHT22;4164;49.844;8.830;2023-07-13T08:03:02;21.60;99.90
8248;DHT22;4164;49.844;8.830;2023-07-13T08:05:28;21.80;99.90
8248;DHT22;4164;49.844;8.830;2023-07-13T08:07:53;21.80;99.90
8248;DHT22;4164;49.844;8.830;2023-07-13T08:10:19;21.80;99.90
8248;DHT22;4164;49.844;8.830;2023-07-13T08:12:45;21.80;99.90
8248;DHT22;4164;49.844;8.830;2023-07-13T08:15:13;22.20;98.80
8248;DHT22;4164;49.844;8.830;2023-07-13T08:17:39;22.30;96.00
8248;DHT22;4164;49.844;8.830;2023-07-13T08:20:05;21.70;93.30
8248;DHT22;4164;49.844;8.830;2023-07-13T08:22:31;21.80;94.30
8248;DHT22;4164;49.844;8.830;2023-07-13T08:24:57;21.90;94.80
8248;DHT22;4164;49.844;8.830;2023-07-13T08:27:23;22.20;94.70
8248;DHT22;4164;49.844;8.830;2023-07-13T08:29:49;22.30;92.40
8248;DHT22;4164;49.844;8.830;2023-07-13T08:32:15;22.00;90.50
8248;DHT22;4164;49.844;8.830;2023-07-13T08:34:41;22.30;91.30
8248;DHT22;4164;49.844;8.830;2023-07-13T08:37:07;22.40;86.20
8248;DHT22;4164;49.844;8.830;2023-07-13T08:39:33;22.30;82.90
8248;DHT22;4164;49.844;8.830;2023-07-13T08:42:07;22.60;80.10
8248;DHT22;4164;49.844;8.830;2023-07-13T08:47:15;22.40;73.70
8248;DHT22;4164;49.844;8.830;2023-07-13T08:49:41;22.30;76.90
8248;DHT22;4164;49.844;8.830;2023-07-13T08:54:53;22.60;73.20
8248;DHT22;4164;49.844;8.830;2023-07-13T08:57:26;22.40;72.10
8248;DHT22;4164;49.844;8.830;2023-07-13T08:59:55;22.80;79.10
8248;DHT22;4164;49.844;8.830;2023-07-13T09:02:46;23.00;75.00
8248;DHT22;4164;49.844;8.830;2023-07-13T09:05:21;23.30;65.90
8248;DHT22;4164;49.844;8.830;2023-07-13T09:10:46;22.90;55.70
8248;DHT22;4164;49.844;8.830;2023-07-13T09:15:51;22.90;73.80
8248;DHT22;4164;49.844;8.830;2023-07-13T09:18:25;23.30;57.50
8248;DHT22;4164;49.844;8.830;2023-07-13T09:20:53;22.90;54.40
8248;DHT22;4164;49.844;8.830;2023-07-13T09:23:22;22.90;55.10
8248;DHT22;4164;49.844;8.830;2023-07-13T09:25:49;23.20;57.60
8248;DHT22;4164;49.844;8.830;2023-07-13T09:28:28;23.30;51.10
8248;DHT22;4164;49.844;8.830;2023-07-13T09:31:02;23.70;51.50
8248;DHT22;4164;49.844;8.830;2023-07-13T09:33:30;23.70;52.60
8248;DHT22;4164;49.844;8.830;2023-07-13T09:35:57;23.70;42.10
8248;DHT22;4164;49.844;8.830;2023-07-13T09:38:24;23.60;41.00
8248;DHT22;4164;49.844;8.830;2023-07-13T09:41:18;23.80;39.10
8248;DHT22;4164;49.844;8.830;2023-07-13T09:44:10;23.00;31.20
8248;DHT22;4164;49.844;8.830;2023-07-13T09:46:37;23.20;32.60
8248;DHT22;4164;49.844;8.830;2023-07-13T09:49:03;23.30;33.60
8248;DHT22;4164;49.844;8.830;2023-07-13T09:51:29;23.20;26.70
8248;DHT22;4164;49.844;8.830;2023-07-13T09:53:55;23.50;28.50
8248;DHT22;4164;49.844;8.830;2023-07-13T09:56:21;23.60;27.40
8248;DHT22;4164;49.844;8.830;2023-07-13T09:58:47;24.00;24.70
8248;DHT22;4164;49.844;8.830;2023-07-13T10:01:13;24.20;21.00
8248;DHT22;4164;49.844;8.830;2023-07-13T10:03:39;24.40;21.30
8248;DHT22;4164;49.844;8.830;2023-07-13T10:06:18;23.90;14.30
8248;DHT22;4164;49.844;8.830;2023-07-13T10:08:49;24.00;15.80
8248;DHT22;4164;49.844;8.830;2023-07-13T10:11:27;24.20;11.40
8248;DHT22;4164;49.844;8.830;2023-07-13T10:13:57;23.70;10.20
8248;DHT22;4164;49.844;8.830;2023-07-13T10:16:28;23.60;9.10
8248;DHT22;4164;49.844;8.830;2023-07-13T10:19:12;23.50;7.90
8248;DHT22;4164;49.844;8.830;2023-07-13T10:24:25;23.80;6.80
8248;DHT22;4164;49.844;8.830;2023-07-13T10:27:16;24.20;4.30
8248;DHT22;4164;49.844;8.830;2023-07-13T10:29:50;25.10;1.60
8248;DHT22;4164;49.844;8.830;2023-07-13T10:32:19;24.60;1.00
8248;DHT22;4164;49.844;8.830;2023-07-13T10:34:47;24.10;1.00
8248;DHT22;4164;49.844;8.830;2023-07-13T10:37:29;23.90;1.00
8248;DHT22;4164;49.844;8.830;2023-07-13T10:39:57;23.90;1.00
8248;DHT22;4164;49.844;8.830;2023-07-13T10:42:29;23.80;1.00
8248;DHT22;4164;49.844;8.830;2023-07-13T10:44:55;23.90;1.00
8248;DHT22;4164;49.844;8.830;2023-07-13T10:47:21;24.10;1.00
8248;DHT22;4164;49.844;8.830;2023-07-13T10:49:50;24.20;1.00
8248;DHT22;4164;49.844;8.830;2023-07-13T10:52:41;23.50;1.00
8248;DHT22;4164;49.844;8.830;2023-07-13T10:58:18;23.40;1.00
8248;DHT22;4164;49.844;8.830;2023-07-13T11:00:53;23.30;1.00
8248;DHT22;4164;49.844;8.830;2023-07-13T11:03:22;23.50;1.00
8248;DHT22;4164;49.844;8.830;2023-07-13T11:06:15;23.30;1.00
8248;DHT22;4164;49.844;8.830;2023-07-13T11:18:52;26.10;1.00
8248;DHT22;4164;49.844;8.830;2023-07-13T11:21:19;27.00;1.00
8248;DHT22;4164;49.844;8.830;2023-07-13T11:23:53;26.80;1.00
8248;DHT22;4164;49.844;8.830;2023-07-13T11:26:57;26.80;1.00
8248;DHT22;4164;49.844;8.830;2023-07-13T11:31:58;25.90;1.00
8248;DHT22;4164;49.844;8.830;2023-07-13T11:34:34;25.20;1.00
8248;DHT22;4164;49.844;8.830;2023-07-13T11:37:00;24.50;1.00
8248;DHT22;4164;49.844;8.830;2023-07-13T11:39:35;23.90;1.00
8248;DHT22;4164;49.844;8.830;2023-07-13T11:42:05;23.80;1.00
8248;DHT22;4164;49.844;8.830;2023-07-13T11:44:33;23.80;1.00
8248;DHT22;4164;49.844;8.830;2023-07-13T11:47:08;23.80;1.00
8248;DHT22;4164;49.844;8.830;2023-07-13T11:49:43;23.80;1.00
8248;DHT22;4164;49.844;8.830;2023-07-13T11:52:23;24.00;1.00
8248;DHT22;4164;49.844;8.830;2023-07-13T11:54:53;24.20;1.00
8248;DHT22;4164;49.844;8.830;2023-07-13T11:57:28;24.00;1.00
8248;DHT22;4164;49.844;8.830;2023-07-13T11:59:55;24.20;1.00
8248;DHT22;4164;49.844;8.830;2023-07-13T12:02:37;24.80;1.00
8248;DHT22;4164;49.844;8.830;2023-07-13T12:05:04;25.60;1.00
8248;DHT22;4164;49.844;8.830;2023-07-13T12:07:32;26.10;1.00
8248;DHT22;4164;49.844;8.830;2023-07-13T12:12:35;25.10;1.00
8248;DHT22;4164;49.844;8.830;2023-07-13T12:15:05;25.60;1.00
8248;DHT22;4164;49.844;8.830;2023-07-13T12:17:31;25.50;1.00
8248;DHT22;4164;49.844;8.830;2023-07-13T12:19:57;25.40;1.00
8248;DHT22;4164;49.844;8.830;2023-07-13T12:22:23;25.90;1.00
8248;DHT22;4164;49.844;8.830;2023-07-13T12:24:49;26.20;1.00
8248;DHT22;4164;49.844;8.830;2023-07-13T12:27:23;26.20;1.00
8248;DHT22;4164;49.844;8.830;2023-07-13T12:30:02;25.80;1.00
8248;DHT22;4164;49.844;8.830;2023-07-13T12:32:31;27.50;1.00
8248;DHT22;4164;49.844;8.830;2023-07-13T12:35:12;28.00;1.00
8248;DHT22;4164;49.844;8.830;2023-07-13T12:37:42;30.80;1.00
8248;DHT22;4164;49.844;8.830;2023-07-13T12:40:17;28.00;1.00
8248;DHT22;4164;49.844;8.830;2023-07-13T12:42:49;26.70;1.00
8248;DHT22;4164;49.844;8.830;2023-07-13T12:45:26;26.50;1.00
8248;DHT22;4164;49.844;8.830;2023-07-13T12:48:14;26.40;1.00
8248;DHT22;4164;49.844;8.830;2023-07-13T12:50:42;26.30;1.00
8248;DHT22;4164;49.844;8.830;2023-07-13T12:53:18;26.10;1.00
8248;DHT22;4164;49.844;8.830;2023-07-13T12:55:55;25.70;1.00
8248;DHT22;4164;49.844;8.830;2023-07-13T13:00:56;26.70;1.00
8248;DHT22;4164;49.844;8.830;2023-07-13T13:03:29;27.00;1.00
8248;DHT22;4164;49.844;8.830;2023-07-13T13:08:45;27.80;1.00
8248;DHT22;4164;49.844;8.830;2023-07-13T13:11:11;26.10;1.00
8248;DHT22;4164;49.844;8.830;2023-07-13T13:13:37;26.20;1.00
8248;DHT22;4164;49.844;8.830;2023-07-13T13:18:46;25.50;1.00
8248;DHT22;4164;49.844;8.830;2023-07-13T13:21:12;25.40;1.00
8248;DHT22;4164;49.844;8.830;2023-07-13T13:23:37;25.40;1.00
8248;DHT22;4164;49.844;8.830;2023-07-13T13:26:08;25.70;1.00
8248;DHT22;4164;49.844;8.830;2023-07-13T13:28:34;25.10;1.00
8248;DHT22;4164;49.844;8.830;2023-07-13T13:31:00;25.00;1.00
8248;DHT22;4164;49.844;8.830;2023-07-13T13:33:25;24.80;1.00
8248;DHT22;4164;49.844;8.830;2023-07-13T13:35:51;24.70;1.00
8248;DHT22;4164;49.844;8.830;2023-07-13T13:38:19;24.60;1.00
8248;DHT22;4164;49.844;8.830;2023-07-13T13:40:45;24.40;1.00
8248;DHT22;4164;49.844;8.830;2023-07-13T13:43:25;24.50;1.00
8248;DHT22;4164;49.844;8.830;2023-07-13T13:45:53;24.80;1.00
8248;DHT22;4164;49.844;8.830;2023-07-13T13:48:25;25.20;1.00
8248;DHT22;4164;49.844;8.830;2023-07-13T13:50:56;25.10;1.00
8248;DHT22;4164;49.844;8.830;2023-07-13T13:53:22;25.30;1.00
8248;DHT22;4164;49.844;8.830;2023-07-13T13:55:49;25.30;1.00
8248;DHT22;4164;49.844;8.830;2023-07-13T13:58:15;25.10;1.00
8248;DHT22;4164;49.844;8.830;2023-07-13T14:00:41;25.00;1.00
8248;DHT22;4164;49.844;8.830;2023-07-13T14:03:17;25.10;1.00
8248;DHT22;4164;49.844;8.830;2023-07-13T14:05:44;25.30;1.00
8248;DHT22;4164;49.844;8.830;2023-07-13T14:08:15;24.90;1.00
8248;DHT22;4164;49.844;8.830;2023-07-13T14:10:40;25.70;1.00
8248;DHT22;4164;49.844;8.830;2023-07-13T14:13:16;26.40;1.00
8248;DHT22;4164;49.844;8.830;2023-07-13T14:15:42;25.70;1.00
8248;DHT22;4164;49.844;8.830;2023-07-13T14:18:08;25.10;1.00
8248;DHT22;4164;49.844;8.830;2023-07-13T14:20:34;25.10;1.00
8248;DHT22;4164;49.844;8.830;2023-07-13T14:23:00;25.20;1.00
8248;DHT22;4164;49.844;8.830;2023-07-13T14:25:25;25.90;1.00
8248;DHT22;4164;49.844;8.830;2023-07-13T14:27:57;26.60;1.00
8248;DHT22;4164;49.844;8.830;2023-07-13T14:30:24;26.60;1.00
8248;DHT22;4164;49.844;8.830;2023-07-13T14:32:50;26.00;1.00
8248;DHT22;4164;49.844;8.830;2023-07-13T14:35:21;27.60;1.00
8248;DHT22;4164;49.844;8.830;2023-07-13T14:37:49;28.00;1.00
8248;DHT22;4164;49.844;8.830;2023-07-13T14:40:28;27.10;1.00
8248;DHT22;4164;49.844;8.830;2023-07-13T14:42:54;27.50;1.00
8248;DHT22;4164;49.844;8.830;2023-07-13T14:45:20;26.70;1.00
8248;DHT22;4164;49.844;8.830;2023-07-13T14:47:46;25.80;1.00
8248;DHT22;4164;49.844;8.830;2023-07-13T14:50:29;25.50;1.00
8248;DHT22;4164;49.844;8.830;2023-07-13T14:52:55;25.10;1.00
8248;DHT22;4164;49.844;8.830;2023-07-13T14:55:20;25.40;1.00
8248;DHT22;4164;49.844;8.830;2023-07-13T14:57:47;25.20;1.00
8248;DHT22;4164;49.844;8.830;2023-07-13T15:00:15;25.50;1.00
8248;DHT22;4164;49.844;8.830;2023-07-13T15:02:50;25.60;1.00
8248;DHT22;4164;49.844;8.830;2023-07-13T15:05:23;25.80;1.00
8248;DHT22;4164;49.844;8.830;2023-07-13T15:07:50;26.70;1.00
8248;DHT22;4164;49.844;8.830;2023-07-13T15:10:18;26.20;1.00
8248;DHT22;4164;49.844;8.830;2023-07-13T15:12:44;25.60;1.00
8248;DHT22;4164;49.844;8.830;2023-07-13T15:15:10;25.40;1.00
8248;DHT22;4164;49.844;8.830;2023-07-13T15:17:41;25.40;1.00
8248;DHT22;4164;49.844;8.830;2023-07-13T15:20:19;25.30;1.00
8248;DHT22;4164;49.844;8.830;2023-07-13T15:22:46;25.70;1.00
8248;DHT22;4164;49.844;8.830;2023-07-13T15:25:22;26.00;1.00
8248;DHT22;4164;49.844;8.830;2023-07-13T15:27:49;26.20;1.00
8248;DHT22;4164;49.844;8.830;2023-07-13T15:30:15;26.30;1.00
8248;DHT22;4164;49.844;8.830;2023-07-13T15:32:42;26.70;1.00
8248;DHT22;4164;49.844;8.830;2023-07-13T15:35:21;26.20;1.00
8248;DHT22;4164;49.844;8.830;2023-07-13T15:37:48;26.30;1.00
8248;DHT22;4164;49.844;8.830;2023-07-13T15:40:15;26.00;1.00
8248;DHT22;4164;49.844;8.830;2023-07-13T15:42:41;25.70;1.00
8248;DHT22;4164;49.844;8.830;2023-07-13T15:45:25;25.50;1.00
8248;DHT22;4164;49.844;8.830;2023-07-13T15:47:51;25.00;1.00
8248;DHT22;4164;49.844;8.830;2023-07-13T15:50:22;24.60;1.00
8248;DHT22;4164;49.844;8.830;2023-07-13T15:52:51;24.80;1.00
8248;DHT22;4164;49.844;8.830;2023-07-13T15:55:18;25.00;1.00
8248;DHT22;4164;49.844;8.830;2023-07-13T15:57:48;24.70;1.00
8248;DHT22;4164;49.844;8.830;2023-07-13T16:00:25;24.70;1.00
8248;DHT22;4164;49.844;8.830;2023-07-13T16:02:51;24.80;1.00
8248;DHT22;4164;49.844;8.830;2023-07-13T16:05:18;24.80;1.00
8248;DHT22;4164;49.844;8.830;2023-07-13T16:07:46;24.70;1.00
8248;DHT22;4164;49.844;8.830;2023-07-13T16:10:24;24.70;1.00
8248;DHT22;4164;49.844;8.830;2023-07-13T16:12:52;24.80;1.00
8248;DHT22;4164;49.844;8.830;2023-07-13T16:15:20;24.50;1.00
8248;DHT22;4164;49.844;8.830;2023-07-13T16:17:47;24.50;1.00
8248;DHT22;4164;49.844;8.830;2023-07-13T16:20:13;24.50;1.00
8248;DHT22;4164;49.844;8.830;2023-07-13T16:22:40;24.70;1.00
8248;DHT22;4164;49.844;8.830;2023-07-13T16:27:39;24.30;1.00
8248;DHT22;4164;49.844;8.830;2023-07-13T16:30:20;24.60;1.00
8248;DHT22;4164;49.844;8.830;2023-07-13T16:32:50;24.60;1.00
8248;DHT22;4164;49.844;8.830;2023-07-13T16:35:23;24.70;1.00
8248;DHT22;4164;49.844;8.830;2023-07-13T16:37:50;24.90;1.00
8248;DHT22;4164;49.844;8.830;2023-07-13T16:40:25;24.80;1.00
8248;DHT22;4164;49.844;8.830;2023-07-13T16:42:53;24.60;1.00
8248;DHT22;4164;49.844;8.830;2023-07-13T16:45:30;24.60;1.00
8248;DHT22;4164;49.844;8.830;2023-07-13T16:48:00;24.60;1.00
8248;DHT22;4164;49.844;8.830;2023-07-13T16:50:31;24.50;1.00
8248;DHT22;4164;49.844;8.830;2023-07-13T16:52:56;24.40;1.00
8248;DHT22;4164;49.844;8.830;2023-07-13T16:55:23;24.40;1.00
8248;DHT22;4164;49.844;8.830;2023-07-13T16:58:00;24.30;1.00
8248;DHT22;4164;49.844;8.830;2023-07-13T17:00:30;24.30;1.00
8248;DHT22;4164;49.844;8.830;2023-07-13T17:03:01;24.40;1.00
8248;DHT22;4164;49.844;8.830;2023-07-13T17:05:47;24.30;1.00